Tuesday, December 11, 2018, 3:12 AM GMT
Back to Local

CWVQ, Ste Anne De Bell 1

Location: , , Canada Lat: 45.433
Local Time: 3:12 AM GMT ( 3:12 GMT) Lon: -73.933
Time Zone: GMT Elev: 127 ft

Show me the last for .
Show Decoded

2018-12-11 02:00 METAR CWVQ 110200Z AUTO 32002KT M12/M14 RMK AO1 SOG 05 8005 SLP235 T11221135 =
2018-12-11 01:00 METAR CWVQ 110100Z AUTO 29001KT M12/M15 RMK AO1 SOG 05 6006 SLP239 T11151147 =
2018-12-11 00:00 METAR CWVQ 110000Z AUTO 26003KT M11/M14 RMK AO1 SOG 05 8002 SLP241 T11121138 =
2018-12-10 23:00 METAR CWVQ 102300Z AUTO 23002KT M09/M14 RMK AO1 SOG 04 0001 SLP240 T10921138 =
2018-12-10 22:00 METAR CWVQ 102200Z AUTO 26003KT M08/M14 RMK AO1 SOG 04 2007 SLP244 T10841140 =
2018-12-10 21:00 METAR CWVQ 102100Z AUTO 25005KT M07/M14 RMK AO1 SOG 05 3003 SLP243 T10721136 =
2018-12-10 20:00 METAR CWVQ 102000Z AUTO 28004KT M07/M13 RMK AO1 SOG 05 5001 SLP239 T10711134 =
2018-12-10 19:00 METAR CWVQ 101900Z AUTO 26004KT M07/M14 RMK AO1 SOG 05 6006 SLP237 T10681140 =
2018-12-10 18:00 METAR CWVQ 101800Z AUTO 30002KT M07/M14 RMK AO1 SOG 05 6008 SLP239 T10681144 =
2018-12-10 17:00 METAR CWVQ 101700Z AUTO 00000KT M06/M14 RMK AO1 SOG 04 8003 SLP239 T10621142 =
2018-12-10 16:00 METAR CWVQ 101600Z AUTO 35002KT M07/M15 RMK AO1 SOG 05 0008 SLP243 T10711147 =
2018-12-10 15:00 METAR CWVQ 101500Z AUTO 02004KT M07/M15 RMK AO1 SOG 05 3017 SLP248 T10741148 =
2018-12-10 14:00 METAR CWVQ 101400Z AUTO 02004KT M08/M14 RMK AO1 SOG 05 3018 SLP242 T10771141 =
2018-12-10 13:00 METAR CWVQ 101300Z AUTO 02003KT M08/M14 RMK AO1 SOG 05 2015 SLP235 T10771135 =
2018-12-10 12:00 METAR CWVQ 101200Z AUTO 02004KT M07/M12 RMK AO1 SOG 05 3012 SLP231 T10741116 =
2018-12-10 11:00 METAR CWVQ 101100Z AUTO 36004KT M07/M12 RMK AO1 SOG 05 3006 SLP224 T10731119 =
2018-12-10 10:00 METAR CWVQ 101000Z AUTO 31005KT M07/M12 RMK AO1 SOG 05 1006 SLP220 T10721120 =
2018-12-10 09:00 METAR CWVQ 100900Z AUTO 31006KT M08/M12 RMK AO1 SOG 05 1013 SLP218 T10751119 =
2018-12-10 08:00 METAR CWVQ 100800Z AUTO 35006KT M06/M10 RMK AO1 SOG 05 3015 SLP218 T10621097 =
2018-12-10 07:00 METAR CWVQ 100700Z AUTO 33006KT M06/M10 RMK AO1 SOG 05 3012 SLP213 T10591104 =
2018-12-10 06:00 METAR CWVQ 100600Z AUTO 30005KT M04/M10 RMK AO1 SOG 04 1012 SLP206 T10411096 =
2018-12-10 05:00 METAR CWVQ 100500Z AUTO 32009KT M03/M09 RMK AO1 SOG 04 2011 SLP203 T10271093 =
2018-12-10 04:00 METAR CWVQ 100400Z AUTO 31007KT M02/M06 RMK AO1 SOG 05 3011 SLP201 T10181063 =

Support USWX by starting your Amazon purchase here.